Time;durP1;ratioP1;P1;durP2;ratioP2;P2;SDS_P1;SDS_P2;PMS_P1;PMS_P2;Temp;Humidity;BMP_temperature;BMP_pressure;BME280_temperature;BME280_humidity;BME280_pressure;Samples;Min_cycle;Max_cycle;Signal;HPM_P1;HPM_P2
2021/07/23 00:00:10;;;;;;;20.88;11.95;;;;;;;13.14;100.00;94055.13;5095112;28;20194;-79
2021/07/23 00:02:36;;;;;;;21.63;12.60;;;;;;;13.04;100.00;94053.97;5095111;28;20224;-79
2021/07/23 00:05:05;;;;;;;21.63;12.53;;;;;;;13.05;100.00;94047.72;5095053;28;20263;-79
2021/07/23 00:07:31;;;;;;;24.07;13.30;;;;;;;13.08;100.00;94049.94;5094891;28;20202;-79
2021/07/23 00:09:58;;;;;;;24.43;12.80;;;;;;;13.17;100.00;94046.03;5094723;28;20198;-77
2021/07/23 00:12:24;;;;;;;27.10;12.77;;;;;;;13.17;100.00;94047.88;5092111;28;20191;-79
2021/07/23 00:14:51;;;;;;;22.23;13.20;;;;;;;13.16;100.00;94043.66;5093610;28;20230;-79
2021/07/23 00:17:17;;;;;;;29.27;12.47;;;;;;;13.11;100.00;94039.03;5094699;28;20205;-80
2021/07/23 00:19:44;;;;;;;24.13;12.87;;;;;;;13.00;100.00;94044.94;5094686;28;20198;-80
2021/07/23 00:22:12;;;;;;;27.17;13.10;;;;;;;12.89;100.00;94046.38;5083785;28;20202;-80
2021/07/23 00:24:38;;;;;;;28.90;13.53;;;;;;;12.87;100.00;94046.59;5077228;28;20276;-81
2021/07/23 00:27:05;;;;;;;22.70;12.17;;;;;;;12.76;100.00;94047.25;5074438;28;20267;-80
2021/07/23 00:29:31;;;;;;;33.17;13.63;;;;;;;12.77;100.00;94043.59;5074255;28;20252;-80
2021/07/23 00:31:57;;;;;;;21.23;12.70;;;;;;;12.78;100.00;94047.81;5074293;28;20202;-80
2021/07/23 00:34:24;;;;;;;24.67;13.87;;;;;;;12.77;100.00;94046.22;5073871;28;20238;-79
2021/07/23 00:36:50;;;;;;;22.90;12.77;;;;;;;12.73;100.00;94042.41;5074077;28;20217;-79
2021/07/23 00:39:18;;;;;;;25.00;12.80;;;;;;;12.81;100.00;94050.03;5073825;28;20203;-79
2021/07/23 00:41:45;;;;;;;24.97;13.07;;;;;;;12.69;100.00;94044.63;5074127;28;20328;-78
2021/07/23 00:44:11;;;;;;;27.07;13.33;;;;;;;12.74;100.00;94039.59;5074051;28;20624;-78
2021/07/23 00:46:38;;;;;;;28.87;14.60;;;;;;;12.83;100.00;94032.28;5073843;28;20201;-79
2021/07/23 00:49:05;;;;;;;28.00;14.20;;;;;;;12.85;100.00;94032.88;5073806;28;20203;-79
2021/07/23 00:51:32;;;;;;;27.83;13.83;;;;;;;12.90;100.00;94032.25;5073774;28;20570;-80
2021/07/23 00:53:59;;;;;;;29.83;14.70;;;;;;;12.92;100.00;94028.44;5073530;28;20248;-79
2021/07/23 00:56:27;;;;;;;24.90;13.07;;;;;;;12.95;100.00;94032.44;5073836;28;20195;-78
2021/07/23 00:58:54;;;;;;;24.10;12.20;;;;;;;12.93;100.00;94026.59;5073758;28;20202;-79
2021/07/23 01:01:21;;;;;;;22.33;12.60;;;;;;;12.92;100.00;94025.00;5073617;28;20198;-78
2021/07/23 01:03:48;;;;;;;26.70;13.20;;;;;;;12.94;100.00;94023.00;5073450;28;20248;-78
2021/07/23 01:06:15;;;;;;;25.67;13.27;;;;;;;12.89;100.00;94026.22;5073400;28;20207;-77
2021/07/23 01:08:42;;;;;;;25.73;12.30;;;;;;;12.81;100.00;94018.59;5073694;28;20206;-81
2021/07/23 01:11:08;;;;;;;23.03;11.87;;;;;;;12.80;100.00;94024.84;5073317;28;20249;-80
2021/07/23 01:13:36;;;;;;;26.73;11.43;;;;;;;12.65;100.00;94024.28;5073379;28;20566;-81
2021/07/23 01:16:03;;;;;;;29.33;13.23;;;;;;;12.61;100.00;94026.53;5073302;28;20226;-80
2021/07/23 01:18:30;;;;;;;24.53;12.70;;;;;;;12.55;100.00;94014.25;5073369;28;20198;-79
2021/07/23 01:20:57;;;;;;;27.23;13.63;;;;;;;12.49;100.00;94013.28;5073187;28;20249;-80
2021/07/23 01:23:29;;;;;;;27.70;13.30;;;;;;;12.41;100.00;94013.50;5077188;28;20549;-82
2021/07/23 01:25:57;;;;;;;29.40;13.40;;;;;;;12.44;100.00;94007.03;5093486;28;20298;-80
2021/07/23 01:28:24;;;;;;;29.00;13.50;;;;;;;12.34;100.00;94005.66;5093429;28;20255;-80
2021/07/23 01:30:50;;;;;;;24.50;13.00;;;;;;;12.25;100.00;94008.69;5093385;28;20207;-81
2021/07/23 01:33:17;;;;;;;23.77;11.93;;;;;;;12.19;100.00;94008.50;5093255;28;20206;-82
2021/07/23 01:35:44;;;;;;;25.73;13.10;;;;;;;12.19;100.00;94002.44;5092905;28;20290;-79
2021/07/23 01:38:10;;;;;;;32.37;13.77;;;;;;;12.26;100.00;94008.50;5093388;28;20243;-80
2021/07/23 01:40:38;;;;;;;27.03;12.57;;;;;;;12.12;100.00;94010.31;5093214;28;20209;-81
2021/07/23 01:43:05;;;;;;;24.20;12.47;;;;;;;12.05;100.00;94008.72;5093280;28;20217;-81
2021/07/23 01:45:31;;;;;;;24.23;12.47;;;;;;;11.99;100.00;94000.69;5093125;28;20205;-81
2021/07/23 01:47:58;;;;;;;25.23;13.27;;;;;;;11.94;100.00;94007.53;5092422;28;20201;-82
2021/07/23 01:50:24;;;;;;;29.27;14.40;;;;;;;11.92;100.00;94005.09;5093241;28;20197;-81
2021/07/23 01:52:50;;;;;;;31.30;14.53;;;;;;;11.94;100.00;93997.06;5093083;28;20205;-81
2021/07/23 01:55:17;;;;;;;31.77;15.20;;;;;;;11.97;100.00;93988.81;5093017;28;20237;-81
2021/07/23 01:57:45;;;;;;;36.20;14.30;;;;;;;11.98;100.00;93993.84;5092928;28;20194;-80
2021/07/23 02:00:12;;;;;;;30.63;15.40;;;;;;;12.09;100.00;93989.81;5092449;28;20198;-80
2021/07/23 02:02:39;;;;;;;32.97;14.83;;;;;;;12.09;100.00;94000.28;5092715;28;20205;-81
2021/07/23 02:05:06;;;;;;;31.70;15.67;;;;;;;12.09;100.00;93991.59;5093055;28;20297;-81
2021/07/23 02:07:33;;;;;;;33.30;17.70;;;;;;;12.16;100.00;93987.97;5092537;28;20439;-80
2021/07/23 02:10:00;;;;;;;31.73;15.53;;;;;;;12.17;100.00;93994.00;5093180;28;20237;-80
2021/07/23 02:12:27;;;;;;;32.77;15.03;;;;;;;12.16;100.00;93990.59;5092759;28;20294;-80
2021/07/23 02:14:54;;;;;;;29.60;15.03;;;;;;;12.15;100.00;93988.97;5092742;28;20624;-81
2021/07/23 02:17:21;;;;;;;29.67;13.67;;;;;;;12.12;100.00;93986.75;5092678;28;20202;-80
2021/07/23 02:19:47;;;;;;;23.97;13.27;;;;;;;11.93;100.00;93990.22;5092923;28;20255;-79
2021/07/23 02:22:14;;;;;;;26.43;13.23;;;;;;;11.85;100.00;93988.59;5092803;28;20202;-80
2021/07/23 02:24:41;;;;;;;29.90;14.03;;;;;;;11.81;100.00;93990.81;5092719;28;20194;-79
2021/07/23 02:27:07;;;;;;;29.23;14.60;;;;;;;11.73;100.00;93982.38;5092659;28;20664;-81
2021/07/23 02:29:34;;;;;;;34.67;16.07;;;;;;;11.77;100.00;93986.97;5092668;28;20198;-79
2021/07/23 02:32:01;;;;;;;29.77;14.67;;;;;;;11.84;100.00;93987.00;5092529;28;20599;-80
2021/07/23 02:34:29;;;;;;;28.30;14.33;;;;;;;11.78;100.00;93988.59;5092306;28;20773;-79
2021/07/23 02:36:56;;;;;;;30.47;14.23;;;;;;;11.70;100.00;93980.94;5092855;28;20226;-79
2021/07/23 02:39:24;;;;;;;27.80;13.73;;;;;;;11.59;100.00;93979.75;5092661;28;20228;-77
2021/07/23 02:41:50;;;;;;;25.03;13.17;;;;;;;11.49;100.00;93979.38;5092627;28;20208;-78
2021/07/23 02:44:16;;;;;;;26.27;13.27;;;;;;;11.42;100.00;93976.75;5092482;28;20202;-81
2021/07/23 02:46:43;;;;;;;30.23;15.40;;;;;;;11.62;100.00;93978.53;5092711;28;20205;-78
2021/07/23 02:49:11;;;;;;;31.83;15.90;;;;;;;11.68;100.00;93971.72;5092664;28;20202;-78
2021/07/23 02:51:37;;;;;;;36.80;16.75;;;;;;;11.66;100.00;93975.31;5092493;28;20345;-78
2021/07/23 02:54:04;;;;;;;41.83;15.73;;;;;;;11.71;100.00;93976.50;5092442;28;20198;-80
2021/07/23 02:56:30;;;;;;;34.47;16.57;;;;;;;11.83;100.00;93973.09;5092385;28;20252;-81
2021/07/23 02:58:56;;;;;;;35.57;17.10;;;;;;;11.83;100.00;93967.06;5092299;28;20275;-79
2021/07/23 03:01:23;;;;;;;38.80;17.57;;;;;;;11.87;100.00;93972.69;5092467;28;20201;-79
2021/07/23 03:03:49;;;;;;;28.90;15.17;;;;;;;11.76;100.00;93966.28;5092458;28;20198;-79
2021/07/23 03:06:17;;;;;;;33.03;15.23;;;;;;;11.63;100.00;93965.25;5092420;28;20269;-79
2021/07/23 03:08:44;;;;;;;30.93;14.93;;;;;;;11.59;100.00;93960.63;5092352;28;20248;-80
2021/07/23 03:11:10;;;;;;;28.93;13.80;;;;;;;11.61;100.00;93966.50;5092234;28;20198;-80
2021/07/23 03:13:36;;;;;;;30.20;14.77;;;;;;;11.48;100.00;93952.38;5095269;28;20198;-80
2021/07/23 03:16:09;;;;;;;29.77;14.80;;;;;;;11.45;100.00;93960.63;5095760;28;20233;-79
2021/07/23 03:18:35;;;;;;;28.57;15.47;;;;;;;11.47;100.00;93952.59;5095930;28;20195;-79
2021/07/23 03:21:04;;;;;;;35.50;16.33;;;;;;;11.50;100.00;93957.41;5095829;28;20202;-78
2021/07/23 03:23:32;;;;;;;33.77;16.33;;;;;;;11.51;100.00;93951.19;5090792;28;20194;-79
2021/07/23 03:25:58;;;;;;;37.23;16.23;;;;;;;11.56;100.00;93958.44;5075230;28;20214;-79
2021/07/23 03:28:25;;;;;;;37.53;17.43;;;;;;;11.63;100.00;93952.19;5075627;28;20199;-80
2021/07/23 03:30:51;;;;;;;34.70;17.57;;;;;;;11.56;100.00;93950.59;5075430;28;20195;-80
2021/07/23 03:33:18;;;;;;;37.67;16.90;;;;;;;11.41;100.00;93951.59;5075383;28;20210;-81
2021/07/23 03:35:44;;;;;;;33.47;18.02;;;;;;;11.35;100.00;93949.78;5074426;28;20470;-79
2021/07/23 03:38:10;;;;;;;32.77;16.30;;;;;;;11.35;100.00;93949.78;5075092;28;20199;-79
2021/07/23 03:40:38;;;;;;;30.67;16.53;;;;;;;11.43;100.00;93952.19;5074983;28;20257;-80
2021/07/23 03:43:05;;;;;;;40.87;18.63;;;;;;;11.52;100.00;93944.94;5075276;28;20206;-80
2021/07/23 03:45:31;;;;;;;41.70;18.00;;;;;;;11.61;100.00;93941.13;5075223;28;20213;-79
2021/07/23 03:47:58;;;;;;;32.83;17.17;;;;;;;11.52;100.00;93952.00;5074985;28;20251;-81
2021/07/23 03:50:24;;;;;;;30.03;16.03;;;;;;;11.40;100.00;93946.56;5075004;28;20233;-81
2021/07/23 03:52:50;;;;;;;30.00;16.03;;;;;;;11.34;100.00;93948.19;5074968;28;20202;-80
2021/07/23 03:55:17;;;;;;;32.10;17.07;;;;;;;11.47;100.00;93950.81;5087022;28;20221;-80
2021/07/23 03:57:45;;;;;;;34.43;16.20;;;;;;;11.45;100.00;93944.94;5095254;28;20198;-79
2021/07/23 04:00:12;;;;;;;38.47;16.70;;;;;;;11.45;100.00;93946.75;5094873;28;20263;-81
2021/07/23 04:02:39;;;;;;;40.30;18.67;;;;;;;11.54;100.00;93945.56;5095091;28;20614;-80
2021/07/23 04:05:06;;;;;;;34.50;17.37;;;;;;;11.55;100.00;93951.59;5094894;28;20722;-80
2021/07/23 04:07:33;;;;;;;34.37;16.33;;;;;;;11.44;100.00;93945.97;5094753;28;20254;-79
2021/07/23 04:10:00;;;;;;;42.72;21.33;;;;;;;11.52;100.00;93946.75;5093373;28;20788;-78
2021/07/23 04:12:27;;;;;;;39.07;16.83;;;;;;;11.51;100.00;93950.38;5094681;28;20557;-80
2021/07/23 04:14:55;;;;;;;34.07;16.33;;;;;;;11.45;100.00;93947.56;5094465;28;20645;-80
2021/07/23 04:17:21;;;;;;;36.07;16.87;;;;;;;11.51;100.00;93951.19;5094700;28;20194;-80
2021/07/23 04:19:48;;;;;;;39.22;19.50;;;;;;;11.48;100.00;93952.38;5094066;28;20432;-79
2021/07/23 04:22:16;;;;;;;39.13;18.47;;;;;;;11.61;100.00;93951.59;5094475;28;20206;-81
2021/07/23 04:24:43;;;;;;;34.67;16.93;;;;;;;11.60;100.00;93954.41;5094311;28;20278;-80
2021/07/23 04:27:09;;;;;;;34.93;16.63;;;;;;;11.62;100.00;93955.00;5094439;28;20631;-79
2021/07/23 04:29:36;;;;;;;35.60;17.17;;;;;;;11.64;100.00;93961.66;5094373;28;20285;-80
2021/07/23 04:32:04;;;;;;;40.90;17.43;;;;;;;11.72;100.00;93952.78;5094440;28;20198;-79
2021/07/23 04:34:30;;;;;;;36.03;17.77;;;;;;;11.76;100.00;93956.59;5094112;28;20230;-80
2021/07/23 04:37:00;;;;;;;39.43;17.60;;;;;;;11.82;100.00;93958.41;5094155;28;20229;-80
2021/07/23 04:39:27;;;;;;;32.80;17.30;;;;;;;11.91;100.00;93960.81;5094495;28;20209;-80
2021/07/23 04:41:53;;;;;;;39.53;18.23;;;;;;;12.06;100.00;93958.81;5094656;28;20209;-79
2021/07/23 04:44:20;;;;;;;34.07;18.20;;;;;;;12.14;100.00;93963.81;5094337;28;20197;-80
2021/07/23 04:46:46;;;;;;;38.93;17.70;;;;;;;12.21;100.00;93969.03;5094238;28;20209;-79
2021/07/23 04:49:14;;;;;;;33.80;17.17;;;;;;;12.19;100.00;93969.25;5094002;28;20204;-79
2021/07/23 04:51:41;;;;;;;26.67;14.60;;;;;;;12.21;100.00;93966.44;5094014;28;20669;-80
2021/07/23 04:54:07;;;;;;;30.40;15.67;;;;;;;12.19;100.00;93961.41;5094147;28;20198;-80
2021/07/23 04:56:34;;;;;;;26.83;13.90;;;;;;;12.21;100.00;93961.97;5093985;28;20229;-81
2021/07/23 04:59:00;;;;;;;32.30;15.63;;;;;;;12.28;100.00;93964.59;5093923;28;20197;-81
2021/07/23 05:01:27;;;;;;;27.37;14.87;;;;;;;12.34;100.00;93966.38;5093865;28;20202;-81
2021/07/23 05:03:53;;;;;;;29.95;17.13;;;;;;;12.40;100.00;93964.75;5092948;28;20478;-79
2021/07/23 05:06:21;;;;;;;29.07;15.40;;;;;;;12.51;100.00;93963.31;5093679;28;20202;-81
2021/07/23 05:08:48;;;;;;;30.30;15.47;;;;;;;12.61;100.00;93958.44;5093627;28;20653;-80
2021/07/23 05:11:15;;;;;;;36.10;16.27;;;;;;;12.73;100.00;93961.19;5093787;28;20251;-82
2021/07/23 05:13:43;;;;;;;25.30;14.33;;;;;;;12.81;100.00;93954.91;5093922;28;20607;-82
2021/07/23 05:16:10;;;;;;;28.45;14.50;;;;;;;12.92;100.00;93968.16;5093455;28;20225;-81
2021/07/23 05:18:39;;;;;;;26.83;13.90;;;;;;;12.99;100.00;93951.56;5093471;28;20206;-82
2021/07/23 05:21:06;;;;;;;32.42;15.55;;;;;;;13.06;100.00;93960.22;5093570;28;20653;-81
2021/07/23 05:23:34;;;;;;;26.47;13.43;;;;;;;13.15;100.00;93956.31;5088414;28;20236;-81
2021/07/23 05:26:02;;;;;;;23.13;12.68;;;;;;;13.31;100.00;93961.06;5073326;28;20202;-80
2021/07/23 05:28:29;;;;;;;23.98;13.20;;;;;;;13.42;100.00;93961.41;5073187;28;20231;-80
2021/07/23 05:30:55;;;;;;;26.60;12.88;;;;;;;13.49;100.00;93959.56;5073063;28;20203;-80
2021/07/23 05:33:21;;;;;;;33.38;13.57;;;;;;;13.61;100.00;93959.66;5073344;28;20198;-80
2021/07/23 05:35:48;;;;;;;23.85;12.73;;;;;;;13.70;100.00;93960.97;5071978;28;20242;-81
2021/07/23 05:38:15;;;;;;;23.60;13.32;;;;;;;13.97;100.00;93958.94;5072947;28;20657;-82
2021/07/23 05:40:43;;;;;;;24.63;13.82;;;;;;;14.54;100.00;93958.75;5073454;28;20202;-80
2021/07/23 05:43:09;;;;;;;20.75;12.32;;;;;;;15.41;100.00;93957.63;5072986;28;20203;-81
2021/07/23 05:45:38;;;;;;;21.90;11.35;;;;;;;16.36;100.00;93963.75;5072910;28;20210;-80
2021/07/23 05:48:05;;;;;;;16.88;10.80;;;;;;;17.62;100.00;93954.25;5072665;28;20426;-80
2021/07/23 05:50:31;;;;;;;19.40;10.40;;;;;;;18.72;100.00;93966.91;5073115;28;20569;-80
2021/07/23 05:52:58;;;;;;;13.80;8.48;;;;;;;19.80;100.00;93957.44;5072972;28;20194;-81
2021/07/23 05:55:24;;;;;;;15.50;8.13;;;;;;;20.18;100.00;93960.88;5082059;28;20247;-81
2021/07/23 05:57:55;;;;;;;12.93;7.78;;;;;;;21.13;100.00;93964.53;5092931;28;20198;-81
2021/07/23 06:00:22;;;;;;;13.50;7.57;;;;;;;22.25;100.00;93953.19;5092847;28;20660;-80
2021/07/23 06:02:48;;;;;;;13.40;7.38;;;;;;;22.68;100.00;93961.63;5092868;28;20553;-81
2021/07/23 06:05:15;;;;;;;14.35;7.22;;;;;;;22.89;97.57;93957.00;5093106;28;20239;-80
2021/07/23 06:07:42;;;;;;;12.02;7.18;;;;;;;23.09;96.77;93964.13;5092960;28;20229;-80
2021/07/23 06:10:09;;;;;;;13.40;7.13;;;;;;;22.99;88.12;93963.38;5092842;28;20702;-80
2021/07/23 06:12:36;;;;;;;13.02;7.45;;;;;;;22.69;92.55;93955.22;5092737;28;20255;-80
2021/07/23 06:15:05;;;;;;;14.02;7.60;;;;;;;22.86;85.57;93957.56;5093023;28;20205;-80
2021/07/23 06:17:31;;;;;;;13.20;7.45;;;;;;;22.71;86.91;93954.97;5092802;28;20221;-80
2021/07/23 06:19:57;;;;;;;12.00;7.18;;;;;;;22.47;84.48;93954.78;5092775;28;20197;-80
2021/07/23 06:22:24;;;;;;;14.20;7.10;;;;;;;21.83;84.60;93945.50;5092878;28;20258;-80
2021/07/23 06:24:53;;;;;;;13.43;7.70;;;;;;;21.37;85.97;93949.72;5092557;28;20231;-80
2021/07/23 06:27:20;;;;;;;10.65;7.43;;;;;;;20.85;91.55;93953.28;5092569;28;20695;-80
2021/07/23 06:29:48;;;;;;;12.23;7.50;;;;;;;19.86;100.00;93945.81;5092838;28;20218;-80
2021/07/23 06:32:16;;;;;;;14.05;8.35;;;;;;;20.52;96.00;93947.28;5092675;28;20527;-80
2021/07/23 06:34:42;;;;;;;14.45;7.47;;;;;;;20.61;97.55;93948.38;5092558;28;20607;-80
2021/07/23 06:37:09;;;;;;;18.25;7.22;;;;;;;20.73;97.78;93950.06;5092557;28;20226;-80
2021/07/23 06:39:35;;;;;;;11.23;7.10;;;;;;;20.71;95.45;93950.31;5092565;28;20208;-80
2021/07/23 06:42:02;;;;;;;12.63;7.25;;;;;;;20.43;98.29;93954.91;5092786;28;20198;-80
2021/07/23 06:44:30;;;;;;;15.13;7.68;;;;;;;20.50;96.68;93949.38;5092720;28;20205;-80
2021/07/23 06:46:56;;;;;;;13.27;8.00;;;;;;;20.70;100.00;93948.72;5094754;28;20194;-80
2021/07/23 06:49:24;;;;;;;10.88;7.15;;;;;;;20.86;100.00;93946.91;5096509;28;20194;-79
2021/07/23 06:51:50;;;;;;;12.98;7.80;;;;;;;21.02;95.00;93953.09;5096362;28;20209;-79
2021/07/23 06:54:17;;;;;;;13.20;7.75;;;;;;;20.44;100.00;93951.22;5096230;28;20607;-80
2021/07/23 06:56:43;;;;;;;11.68;7.53;;;;;;;20.82;99.03;93946.66;5096407;28;20246;-81
2021/07/23 06:59:10;;;;;;;13.57;8.32;;;;;;;20.72;100.00;93949.25;5096132;28;20649;-80
2021/07/23 07:01:36;;;;;;;13.85;7.85;;;;;;;20.94;94.43;93951.72;5096148;28;20657;-80
2021/07/23 07:04:02;;;;;;;12.60;8.25;;;;;;;20.54;94.42;93942.53;5096204;28;20198;-80
2021/07/23 07:06:30;;;;;;;13.25;7.80;;;;;;;20.28;99.87;93952.19;5096022;28;20534;-80
2021/07/23 07:08:57;;;;;;;15.27;8.68;;;;;;;20.12;98.95;93948.66;5095939;28;20255;-80
2021/07/23 07:11:23;;;;;;;13.07;8.45;;;;;;;20.11;100.00;93944.41;5096246;28;20209;-80
2021/07/23 07:13:49;;;;;;;16.02;8.68;;;;;;;19.90;100.00;93944.28;5095861;28;20194;-81
2021/07/23 07:16:16;;;;;;;18.98;9.85;;;;;;;19.88;100.00;93946.34;5095438;28;20447;-80
2021/07/23 07:18:42;;;;;;;14.23;8.52;;;;;;;19.99;100.00;93946.44;5095970;28;20202;-82
2021/07/23 07:21:09;;;;;;;16.33;8.90;;;;;;;19.90;100.00;93944.28;5095780;28;20202;-80
2021/07/23 07:23:37;;;;;;;15.10;9.18;;;;;;;19.95;100.00;93949.59;5090118;28;20191;-80
2021/07/23 07:26:08;;;;;;;16.45;8.77;;;;;;;19.91;100.00;93935.25;5075613;28;20254;-81
2021/07/23 07:28:35;;;;;;;14.90;8.52;;;;;;;20.06;100.00;93936.41;5075622;28;20264;-81
2021/07/23 07:31:01;;;;;;;22.75;9.68;;;;;;;19.95;100.00;93941.66;5075426;28;20309;-81
2021/07/23 07:33:29;;;;;;;18.67;8.73;;;;;;;20.08;100.00;93939.59;5075321;28;20210;-81
2021/07/23 07:35:56;;;;;;;14.45;8.15;;;;;;;20.18;100.00;93938.88;5074969;28;20581;-81
2021/07/23 07:38:23;;;;;;;18.25;8.80;;;;;;;20.23;100.00;93937.03;5075423;28;20195;-81
2021/07/23 07:40:50;;;;;;;13.73;8.25;;;;;;;20.42;100.00;93941.94;5075330;28;20202;-82
2021/07/23 07:43:17;;;;;;;15.68;9.13;;;;;;;20.42;100.00;93936.63;5075286;28;20210;-80
2021/07/23 07:45:43;;;;;;;15.75;9.50;;;;;;;20.57;100.00;93930.56;5075143;28;20199;-80
2021/07/23 07:48:10;;;;;;;13.65;8.45;;;;;;;20.60;100.00;93930.06;5074961;28;20547;-81
2021/07/23 07:50:36;;;;;;;16.42;7.50;;;;;;;20.79;92.84;93933.91;5074919;28;20249;-82
2021/07/23 07:53:08;;;;;;;16.27;9.48;;;;;;;20.81;100.00;93931.78;5075169;28;20202;-80
2021/07/23 07:55:34;;;;;;;16.08;9.00;;;;;;;20.97;100.00;93926.53;5075064;28;20210;-81
2021/07/23 07:58:02;;;;;;;15.55;8.30;;;;;;;20.96;97.28;93927.59;5074037;28;20288;-81
2021/07/23 08:00:29;;;;;;;14.80;8.18;;;;;;;21.02;99.53;93921.22;5075135;28;20222;-80
2021/07/23 08:02:55;;;;;;;20.75;8.75;;;;;;;21.06;95.68;93925.72;5074712;28;20612;-82
2021/07/23 08:05:22;;;;;;;17.33;8.50;;;;;;;20.91;97.79;93920.38;5094888;28;20210;-83
2021/07/23 08:07:49;;;;;;;13.75;9.07;;;;;;;21.14;95.65;93918.34;5094895;28;20205;-78
2021/07/23 08:10:16;;;;;;;14.00;8.65;;;;;;;21.26;98.55;93908.25;5095033;28;20198;-79
2021/07/23 08:12:43;;;;;;;14.35;8.30;;;;;;;21.40;96.21;93917.31;5094922;28;20213;-81
2021/07/23 08:15:12;;;;;;;18.83;8.88;;;;;;;21.43;97.16;93916.78;5094760;28;20194;-87
2021/07/23 08:17:38;;;;;;;14.05;8.07;;;;;;;21.60;91.93;93918.44;5094511;28;20236;-80
2021/07/23 08:20:06;;;;;;;12.95;8.20;;;;;;;21.55;90.82;93907.78;5087485;28;20231;-81
2021/07/23 08:22:34;;;;;;;12.65;7.93;;;;;;;21.65;95.54;93906.97;5094158;28;20764;-85
2021/07/23 08:25:00;;;;;;;14.38;7.88;;;;;;;21.71;92.97;93901.38;5094703;28;20286;-82
2021/07/23 08:27:28;;;;;;;17.00;9.18;;;;;;;21.69;100.00;93897.41;5094671;28;20557;-81
2021/07/23 08:29:54;;;;;;;16.55;8.52;;;;;;;21.75;94.41;93901.66;5094597;28;20202;-79
2021/07/23 08:32:22;;;;;;;15.48;7.93;;;;;;;21.93;94.40;93901.13;5094629;28;20193;-83
2021/07/23 08:34:48;;;;;;;19.48;8.82;;;;;;;22.10;85.67;93897.34;5094418;28;20226;-80
2021/07/23 08:37:17;;;;;;;15.57;8.45;;;;;;;22.23;85.26;93906.63;5096290;28;20230;-84
2021/07/23 08:39:44;;;;;;;13.48;7.50;;;;;;;22.06;78.67;93901.63;5094864;28;20705;-83
2021/07/23 08:42:23;;;;;;;14.95;8.05;;;;;;;21.94;82.27;93893.94;5095323;28;20194;-82
2021/07/23 08:44:50;;;;;;;15.50;8.93;;;;;;;22.11;85.08;93894.41;5093148;28;20440;-82
2021/07/23 08:47:16;;;;;;;14.98;7.97;;;;;;;22.25;89.96;93904.50;5094278;28;20202;-83
2021/07/23 08:49:44;;;;;;;14.23;8.35;;;;;;;22.35;88.59;93899.22;5094476;28;20209;-82
2021/07/23 08:52:11;;;;;;;19.67;9.02;;;;;;;22.29;86.90;93902.94;5094394;28;20202;-85
2021/07/23 08:54:37;;;;;;;18.20;8.13;;;;;;;22.35;82.86;93904.53;5094645;28;20292;-84
2021/07/23 08:57:07;;;;;;;14.82;9.00;;;;;;;22.35;82.83;93893.88;5094179;28;20619;-80
2021/07/23 08:59:34;;;;;;;12.45;8.40;;;;;;;22.25;86.00;93896.53;5094087;28;20205;-80
2021/07/23 09:02:01;;;;;;;15.80;8.65;;;;;;;22.23;84.45;93901.31;5091161;28;20206;-81
2021/07/23 09:04:29;;;;;;;14.52;8.30;;;;;;;22.18;82.69;93902.13;5073646;28;20733;-81
2021/07/23 09:07:30;;;;;;;17.98;9.00;;;;;;;22.24;87.64;93902.94;5073466;28;20229;-83
2021/07/23 09:10:03;;;;;;;14.05;8.45;;;;;;;22.19;86.90;93895.75;5073813;28;20255;-83
2021/07/23 09:12:40;;;;;;;12.60;7.40;;;;;;;22.30;89.16;93905.34;5078419;28;20198;-81
2021/07/23 09:15:19;;;;;;;15.43;9.07;;;;;;;22.35;88.15;93904.53;5073278;28;20252;-81
2021/07/23 09:17:46;;;;;;;17.63;8.70;;;;;;;22.22;88.31;93895.22;5073222;28;20230;-80
2021/07/23 09:20:13;;;;;;;15.13;8.88;;;;;;;22.25;85.91;93892.00;5073216;28;20203;-79
2021/07/23 09:22:46;;;;;;;14.70;8.60;;;;;;;22.50;88.09;93893.03;5073167;28;20199;-81
2021/07/23 09:25:14;;;;;;;14.00;8.88;;;;;;;22.58;85.19;93889.78;5091991;28;20205;-81
2021/07/23 09:27:44;;;;;;;17.65;8.95;;;;;;;22.67;87.92;93895.38;5093370;28;20209;-80
2021/07/23 09:30:13;;;;;;;15.75;8.48;;;;;;;22.59;83.74;93894.06;5093392;28;20656;-80
2021/07/23 09:32:39;;;;;;;14.82;8.68;;;;;;;22.29;81.03;93889.63;5093762;28;20198;-80
2021/07/23 09:35:12;;;;;;;14.85;9.52;;;;;;;22.41;85.13;93886.66;5093059;28;20283;-81
2021/07/23 09:37:55;;;;;;;15.73;8.95;;;;;;;22.45;82.20;93885.03;5093376;28;20229;-79
2021/07/23 09:40:23;;;;;;;16.33;9.35;;;;;;;22.59;83.31;93887.94;5093236;28;20194;-76
2021/07/23 09:42:57;;;;;;;14.25;8.32;;;;;;;22.75;84.17;93884.16;5093144;28;20198;-80
2021/07/23 09:45:28;;;;;;;15.40;8.82;;;;;;;22.79;80.44;93881.72;5093445;28;20297;-78
2021/07/23 09:48:08;;;;;;;18.65;8.55;;;;;;;22.81;78.13;93883.03;5093208;28;20218;-77
2021/07/23 09:50:37;;;;;;;16.10;8.85;;;;;;;23.00;79.14;93877.88;5093247;28;20201;-81
2021/07/23 09:53:06;;;;;;;20.55;9.30;;;;;;;23.03;82.47;93866.69;5093331;28;20206;-81
2021/07/23 09:55:35;;;;;;;15.30;8.45;;;;;;;23.05;78.50;93871.75;5093431;28;20258;-80
2021/07/23 09:58:05;;;;;;;13.23;8.35;;;;;;;23.18;79.92;93871.16;5093129;28;20257;-81
2021/07/23 10:00:33;;;;;;;18.83;8.48;;;;;;;23.05;77.86;93871.75;5093255;28;20194;-82
2021/07/23 10:03:02;;;;;;;15.27;8.35;;;;;;;22.87;78.91;93863.31;5093077;28;20653;-78
2021/07/23 10:05:34;;;;;;;15.93;8.68;;;;;;;22.82;82.17;93860.66;5093005;28;20198;-81
2021/07/23 10:08:05;;;;;;;17.35;8.75;;;;;;;23.09;80.89;93867.47;5093068;28;20274;-82
2021/07/23 10:10:33;;;;;;;14.98;8.60;;;;;;;23.21;80.87;93857.25;5092892;28;20301;-81
2021/07/23 10:13:02;;;;;;;13.80;8.67;;;;;;;23.16;80.57;93859.94;5092661;28;20428;-80
2021/07/23 10:15:30;;;;;;;16.42;8.98;;;;;;;23.36;82.03;93852.88;5092771;28;21007;-79
2021/07/23 10:17:59;;;;;;;22.13;9.02;;;;;;;23.42;77.48;93849.13;5092806;28;20229;-80
2021/07/23 10:20:36;;;;;;;17.65;8.27;;;;;;;23.18;78.46;93843.69;5093178;28;20209;-79
2021/07/23 10:23:03;;;;;;;16.55;8.68;;;;;;;23.45;83.46;93843.25;5096180;28;20436;-79
2021/07/23 10:25:36;;;;;;;14.18;8.18;;;;;;;23.49;76.31;93840.81;5096918;28;20198;-78
2021/07/23 10:28:03;;;;;;;15.82;8.13;;;;;;;23.51;78.87;93833.31;5096783;28;20667;-79
2021/07/23 10:30:35;;;;;;;13.02;8.38;;;;;;;23.63;79.62;93829.22;5096696;28;20714;-80
2021/07/23 10:33:05;;;;;;;14.27;7.95;;;;;;;23.70;76.53;93826.22;5096673;28;20677;-80
2021/07/23 10:35:35;;;;;;;16.17;8.55;;;;;;;23.50;76.31;93829.06;5096586;28;20232;-79
2021/07/23 10:38:04;;;;;;;16.58;8.82;;;;;;;23.51;79.65;93828.78;5096730;28;20229;-79
2021/07/23 10:40:37;;;;;;;13.32;8.50;;;;;;;23.87;80.26;93815.16;5096600;28;20583;-79
2021/07/23 10:43:38;;;;;;;15.88;8.82;;;;;;;23.82;74.70;93817.88;5096659;28;20198;-80
2021/07/23 10:46:07;;;;;;;15.90;8.50;;;;;;;23.44;74.95;93821.09;5096760;28;20206;-81
2021/07/23 10:48:50;;;;;;;21.00;8.25;;;;;;;23.36;76.78;93818.25;5096557;28;20210;-81
2021/07/23 10:51:48;;;;;;;18.42;8.63;;;;;;;23.19;76.52;93816.00;5096439;28;20206;-80
2021/07/23 10:54:18;;;;;;;13.48;8.13;;;;;;;23.30;78.23;93817.50;5096580;28;20198;-80
2021/07/23 10:57:14;;;;;;;14.75;8.43;;;;;;;23.26;77.35;93805.81;5096465;28;20229;-80
2021/07/23 10:59:51;;;;;;;13.38;8.55;;;;;;;23.31;78.69;93803.09;5096230;28;20259;-80
2021/07/23 11:02:49;;;;;;;14.70;8.45;;;;;;;23.43;75.45;93810.72;5096215;28;20618;-79
2021/07/23 11:05:20;;;;;;;19.50;8.68;;;;;;;23.69;75.00;93802.50;5096192;28;20198;-79
2021/07/23 11:07:59;;;;;;;16.55;8.90;;;;;;;23.91;76.01;93797.50;5096155;28;20206;-79
2021/07/23 11:10:29;;;;;;;14.23;8.35;;;;;;;24.13;74.76;93796.19;5095922;28;20197;-79
2021/07/23 11:12:56;;;;;;;15.50;8.43;;;;;;;24.27;72.84;93799.75;5096111;28;20315;-79
2021/07/23 11:15:23;;;;;;;18.25;7.93;;;;;;;24.68;69.65;93791.25;5096026;28;20198;-79
2021/07/23 11:17:57;;;;;;;12.82;7.22;;;;;;;24.86;70.77;93789.66;5095995;28;20221;-80
2021/07/23 11:20:33;;;;;;;17.23;8.80;;;;;;;24.71;70.26;93790.69;5095906;28;20201;-81